Time;durP1;ratioP1;P1;durP2;ratioP2;P2;SDS_P1;SDS_P2;PMS_P1;PMS_P2;Temp;Humidity;BMP_temperature;BMP_pressure;BME280_temperature;BME280_humidity;BME280_pressure;Samples;Min_cycle;Max_cycle;Signal;HPM_P1;HPM_P2
2022/02/04 00:05:41;;;;;;;5.20;4.50;;;;;;;-3.20;63.28;100320.84;1685519;83;21486;-62
2022/02/04 00:23:51;;;;;;;6.57;4.63;;;;;;;-3.47;64.50;100317.79;1679798;83;21202;-60
2022/02/04 00:26:21;;;;;;;;;;;;;;;-3.49;65.03;100319.66;1682866;83;22170;-60
2022/02/04 00:31:32;;;;;;;5.97;3.93;;;;;;;-3.51;65.45;100318.93;1670375;84;20110;-61
2022/02/04 00:34:00;;;;;;;7.27;4.77;;;;;;;-3.56;65.60;100314.47;1669708;84;21014;-60
2022/02/04 00:36:30;;;;;;;6.40;5.07;;;;;;;-3.56;65.43;100315.77;1596828;88;21222;-60
2022/02/04 00:38:54;;;;;;;8.60;5.37;;;;;;;-3.57;65.50;100312.81;1624115;87;21075;-61
2022/02/04 00:41:24;;;;;;;6.77;4.47;;;;;;;-3.55;65.48;100314.38;1597359;88;21151;-62
2022/02/04 00:43:50;;;;;;;8.47;5.37;;;;;;;-3.53;65.16;100315.59;1606736;88;21122;-60
2022/02/04 00:46:23;;;;;;;7.83;5.13;;;;;;;-3.52;65.36;100309.45;1597436;86;21519;-61
2022/02/04 00:48:53;;;;;;;9.70;4.90;;;;;;;-3.49;65.77;100320.97;1603171;88;21071;-61
2022/02/04 00:51:31;;;;;;;6.97;4.43;;;;;;;-3.45;65.72;100322.91;1646892;85;21019;-60
2022/02/04 01:26:20;;;;;;;6.73;4.20;;;;;;;-3.35;65.05;100330.05;1690066;83;20958;-61
2022/02/04 01:28:52;;;;;;;6.03;4.60;;;;;;;-3.33;65.18;100332.08;1693752;83;21027;-60
2022/02/04 01:31:21;;;;;;;6.67;4.13;;;;;;;-3.29;65.16;100335.81;1685351;83;20946;-59
2022/02/04 01:33:49;;;;;;;4.93;3.67;;;;;;;-3.29;65.55;100322.77;1687239;81;21017;-64
2022/02/04 01:36:17;;;;;;;4.73;4.07;;;;;;;-3.30;65.50;100324.52;1669591;83;21029;-59
2022/02/04 01:38:44;;;;;;;5.30;4.33;;;;;;;-3.29;65.29;100324.08;1682538;83;21127;-61
2022/02/04 01:41:12;;;;;;;8.23;4.77;;;;;;;-3.33;65.22;100322.96;1694744;83;21021;-62
2022/02/04 01:43:41;;;;;;;4.60;3.63;;;;;;;-3.32;65.02;100326.39;1679548;83;21070;-61
2022/02/04 01:46:09;;;;;;;5.00;3.97;;;;;;;-3.32;64.91;100327.70;1686665;81;21125;-61
2022/02/04 01:48:37;;;;;;;4.47;3.83;;;;;;;-3.32;64.83;100333.73;1683943;83;20987;-61
2022/02/04 01:51:07;;;;;;;5.00;3.60;;;;;;;-3.32;64.20;100334.22;1681278;83;22115;-61
2022/02/04 01:53:33;;;;;;;3.63;3.07;;;;;;;-3.36;64.46;100338.78;1689673;84;21056;-60
2022/02/04 01:56:05;;;;;;;5.47;4.87;;;;;;;-3.41;64.32;100333.06;1674468;83;20994;-61
2022/02/04 01:58:32;;;;;;;4.03;3.40;;;;;;;-3.44;64.50;100337.16;1690185;83;21086;-60
2022/02/04 02:00:58;;;;;;;;;;;;;;;-3.41;64.96;100339.58;1681551;83;21044;-60
2022/02/04 02:03:26;;;;;;;3.40;2.67;;;;;;;-3.37;64.83;100338.87;1658375;85;20146;-59
2022/02/04 02:05:56;;;;;;;3.67;2.87;;;;;;;-3.39;64.67;100332.48;1654815;85;21062;-60
2022/02/04 02:08:22;;;;;;;4.80;3.40;;;;;;;-3.38;65.17;100329.41;1654361;85;21457;-61
2022/02/04 02:10:50;;;;;;;5.43;3.60;;;;;;;-3.35;65.07;100333.95;1657001;85;21575;-60
2022/02/04 02:13:40;;;;;;;5.73;4.27;;;;;;;-3.34;64.64;100325.19;1657382;85;21064;-60
2022/02/04 02:43:29;;;;;;;4.23;3.10;;;;;;;-3.50;61.88;100338.86;1617569;87;21036;-61
2022/02/04 02:51:36;;;;;;;2.70;2.40;;;;;;;-3.56;61.97;100343.99;1658912;85;21484;-59
2022/02/04 03:01:21;;;;;;;3.42;2.50;;;;;;;-3.72;61.40;100352.40;1661147;84;21057;-60
2022/02/04 03:03:53;;;;;;;2.58;2.37;;;;;;;-3.76;61.47;100350.92;1646188;86;21057;-59
2022/02/04 03:06:15;;;;;;;4.40;3.13;;;;;;;-3.79;61.76;100348.02;1639819;86;21092;-64
2022/02/04 03:08:42;;;;;;;3.00;2.70;;;;;;;-3.77;61.61;100352.70;1626116;86;21035;-60
2022/02/04 03:11:09;;;;;;;6.42;4.15;;;;;;;-3.80;61.96;100351.58;1646593;84;21259;-60
2022/02/04 03:13:35;;;;;;;2.62;2.42;;;;;;;-3.78;62.06;100351.48;1674211;84;21028;-61
2022/02/04 03:16:06;;;;;;;4.03;3.35;;;;;;;-3.78;61.96;100363.21;1669680;84;21033;-59
2022/02/04 03:18:34;;;;;;;4.03;2.73;;;;;;;-3.77;62.12;100358.35;1671561;84;21071;-60
2022/02/04 03:21:05;;;;;;;3.50;3.07;;;;;;;-3.78;62.18;100356.22;1669251;84;21094;-60
2022/02/04 03:23:31;;;;;;;3.73;3.27;;;;;;;-3.74;62.30;100353.80;1680821;81;21006;-61
2022/02/04 03:26:05;;;;;;;5.00;3.30;;;;;;;-3.72;62.49;100357.61;1686596;83;21026;-60
2022/02/04 03:28:29;;;;;;;6.30;3.43;;;;;;;-3.68;62.28;100359.56;1695444;82;21527;-59
2022/02/04 03:30:56;;;;;;;5.70;3.53;;;;;;;-3.66;62.47;100358.99;1696994;83;21066;-60
2022/02/04 03:33:25;;;;;;;4.50;3.70;;;;;;;-3.63;62.78;100349.69;1697610;83;21513;-60
2022/02/04 03:35:50;;;;;;;4.03;3.33;;;;;;;-3.61;62.86;100358.24;1695835;83;21019;-61
2022/02/04 03:38:17;;;;;;;;;;;;;;;-3.60;62.74;100360.76;1700632;83;21024;-60
2022/02/04 03:40:43;;;;;;;6.20;3.50;;;;;;;-3.60;63.21;100359.45;1703739;83;20214;-60
2022/02/04 03:43:09;;;;;;;6.67;4.70;;;;;;;-3.61;63.13;100362.98;1701234;83;21077;-60
2022/02/04 03:45:35;;;;;;;5.00;4.35;;;;;;;-3.58;63.22;100363.24;1697702;83;21042;-60
2022/02/04 03:48:02;;;;;;;4.75;4.12;;;;;;;-3.57;63.44;100369.66;1697543;83;21040;-60
2022/02/04 03:50:29;;;;;;;6.80;4.87;;;;;;;-3.53;63.57;100362.49;1691691;83;21075;-64
2022/02/04 03:52:55;;;;;;;5.08;3.83;;;;;;;-3.52;63.89;100359.80;1698560;83;21062;-60
2022/02/04 03:55:21;;;;;;;6.35;4.35;;;;;;;-3.52;63.68;100361.58;1693257;83;20990;-59
2022/02/04 03:57:47;;;;;;;5.20;3.12;;;;;;;-3.50;63.49;100361.01;1669078;84;20982;-60
2022/02/04 04:00:18;;;;;;;4.97;4.17;;;;;;;-3.51;63.79;100352.80;1674580;84;21057;-61
2022/02/04 04:02:47;;;;;;;13.47;3.83;;;;;;;-3.49;63.81;100359.23;1641664;85;21009;-61
2022/02/04 04:05:15;;;;;;;3.97;3.10;;;;;;;-3.49;63.92;100359.23;1644739;85;21033;-60
2022/02/04 04:07:46;;;;;;;5.77;4.27;;;;;;;-3.47;63.89;100354.27;1647789;85;21098;-60
2022/02/04 04:10:16;;;;;;;6.13;4.80;;;;;;;-3.46;63.67;100365.56;1650180;85;21111;-61
2022/02/04 04:12:40;;;;;;;8.67;4.57;;;;;;;-3.49;63.66;100365.27;1665471;84;22105;-61
2022/02/04 04:15:10;;;;;;;5.65;4.03;;;;;;;-3.51;63.72;100371.05;1672847;84;20990;-61
2022/02/04 04:17:40;;;;;;;6.13;5.17;;;;;;;-3.55;63.93;100369.09;1644805;85;21081;-60
2022/02/04 04:20:18;;;;;;;10.17;4.50;;;;;;;-3.50;64.37;100369.27;1674901;84;21055;-60
2022/02/04 04:22:46;;;;;;;5.80;3.97;;;;;;;-3.53;64.37;100371.61;1649789;82;21079;-64
2022/02/04 04:25:13;;;;;;;6.23;4.07;;;;;;;-3.57;64.44;100374.05;1635962;85;21057;-60
2022/02/04 04:27:42;;;;;;;5.57;4.07;;;;;;;-3.64;65.20;100376.66;1631172;85;21556;-61
2022/02/04 04:30:12;;;;;;;6.60;4.33;;;;;;;-3.66;64.83;100374.62;1622630;85;21211;-61
2022/02/04 04:32:40;;;;;;;5.27;4.77;;;;;;;-3.76;64.29;100381.70;1632743;85;21041;-59
2022/02/04 04:35:13;;;;;;;5.53;3.87;;;;;;;-3.82;64.85;100377.36;1672024;83;20961;-61
2022/02/04 04:38:02;;;;;;;6.87;4.43;;;;;;;-3.86;65.29;100378.02;1663907;84;21160;-60
2022/02/04 04:45:47;;;;;;;7.30;4.15;;;;;;;-3.86;65.30;100384.52;1678180;80;21043;-60
2022/02/04 05:31:17;;;;;;;6.97;5.33;;;;;;;-4.47;67.06;100425.47;1676680;83;21581;-61
2022/02/04 05:33:43;;;;;;;7.10;4.62;;;;;;;-4.50;67.24;100424.38;1684074;83;21032;-60
2022/02/04 05:36:10;;;;;;;8.93;5.53;;;;;;;-4.54;67.32;100424.15;1691646;83;21028;-60
2022/02/04 05:38:40;;;;;;;8.17;5.23;;;;;;;-4.97;67.58;100358.58;1672493;83;21128;-62
2022/02/04 05:41:09;;;;;;;6.40;4.63;;;;;;;-4.57;67.72;100425.18;1680198;83;21001;-60
2022/02/04 05:43:39;;;;;;;5.87;5.03;;;;;;;-4.59;68.04;100423.13;1690150;83;21044;-61
2022/02/04 05:46:14;;;;;;;11.80;6.57;;;;;;;-4.64;67.77;100430.83;1660583;82;21002;-61
2022/02/04 05:48:40;;;;;;;8.33;5.07;;;;;;;-4.69;67.94;100425.88;1655652;84;21060;-61
2022/02/04 05:59:29;;;;;;;7.23;6.20;;;;;;;-3.39;66.73;100426.32;1645201;86;22065;-61
2022/02/04 06:22:25;;;;;;;10.20;8.47;;;;;;;-3.03;61.34;100430.13;1635102;85;21244;-63
2022/02/04 06:24:53;;;;;;;10.13;8.40;;;;;;;-3.27;61.80;100434.30;1635436;86;21067;-61
2022/02/04 06:27:24;;;;;;;9.43;7.23;;;;;;;-3.49;62.60;100440.84;1634147;86;21103;-62
2022/02/04 06:29:52;;;;;;;12.10;8.37;;;;;;;-3.67;63.35;100438.92;1634718;86;21134;-63
2022/02/04 06:32:19;;;;;;;20.97;12.83;;;;;;;-3.77;63.92;100436.05;1630352;86;21040;-61
2022/02/04 06:34:47;;;;;;;13.13;9.10;;;;;;;-3.84;64.73;100436.05;1630291;85;21104;-57
2022/02/04 06:37:14;;;;;;;13.33;9.13;;;;;;;-3.83;65.20;100433.80;1636357;86;21115;-58
2022/02/04 06:39:40;;;;;;;14.40;9.48;;;;;;;-4.21;64.87;100375.78;1640706;86;21069;-58
2022/02/04 06:42:07;;;;;;;12.10;7.70;;;;;;;-3.84;64.93;100434.75;1637569;86;21571;-59
2022/02/04 06:44:35;;;;;;;13.33;7.53;;;;;;;-3.88;64.93;100435.02;1638358;84;21044;-60
2022/02/04 06:47:05;;;;;;;10.40;7.63;;;;;;;-3.88;65.20;100431.97;1630336;86;21005;-66
2022/02/04 06:49:32;;;;;;;10.53;6.87;;;;;;;-3.85;65.05;100438.27;1634897;86;21002;-63
2022/02/04 06:51:58;;;;;;;8.95;5.85;;;;;;;-3.86;65.24;100436.61;1637985;86;21028;-71
2022/02/04 06:54:24;;;;;;;11.30;7.05;;;;;;;-3.84;65.24;100437.80;1602700;86;21092;-70
2022/02/04 06:56:51;;;;;;;10.03;6.62;;;;;;;-3.84;64.92;100437.35;1656774;85;21031;-70
2022/02/04 06:59:18;;;;;;;10.97;6.73;;;;;;;-3.83;65.26;100439.02;1651545;85;21069;-72
2022/02/04 07:01:44;;;;;;;9.05;6.83;;;;;;;-3.81;65.16;100445.44;1630585;85;21045;-69
2022/02/04 07:04:13;;;;;;;8.08;5.92;;;;;;;-3.78;65.09;100436.14;1576990;89;21614;-71
2022/02/04 07:06:43;;;;;;;8.87;6.80;;;;;;;-3.77;65.21;100442.56;1571935;89;21621;-68
2022/02/04 07:17:18;;;;;;;8.90;6.15;;;;;;;-3.54;64.68;100442.92;1658838;85;21051;-67
2022/02/04 07:19:44;;;;;;;7.72;6.15;;;;;;;-3.53;64.29;100438.06;1656712;85;21080;-68
2022/02/04 07:22:10;;;;;;;9.23;6.77;;;;;;;-3.50;64.75;100444.84;1660665;85;21083;-69
2022/02/04 07:24:37;;;;;;;13.48;9.28;;;;;;;-3.44;64.74;100441.88;1664002;85;21596;-69
2022/02/04 07:27:03;;;;;;;9.43;7.47;;;;;;;-3.38;64.40;100444.09;1616122;86;21046;-69
2022/02/04 07:29:32;;;;;;;10.33;6.50;;;;;;;-3.36;64.30;100452.17;1651952;85;21546;-67
2022/02/04 07:32:02;;;;;;;8.67;6.63;;;;;;;-3.33;64.25;100451.98;1646569;85;21621;-67
2022/02/04 07:34:42;;;;;;;8.33;6.37;;;;;;;-3.34;63.71;100448.17;1668883;83;20972;-67
2022/02/04 07:42:25;;;;;;;7.30;6.33;;;;;;;-3.23;64.37;100443.11;1677848;84;21589;-66
2022/02/04 07:44:51;;;;;;;10.23;7.72;;;;;;;-3.15;63.87;100434.80;1682591;83;21024;-67
2022/02/04 07:47:17;;;;;;;9.65;7.33;;;;;;;-3.09;63.59;100438.80;1662565;84;21034;-69
2022/02/04 07:49:46;;;;;;;11.17;7.40;;;;;;;-3.07;63.75;100440.83;1629495;86;21067;-67
2022/02/04 07:52:12;;;;;;;11.37;7.50;;;;;;;-3.07;63.19;100435.17;1644778;86;21002;-68
2022/02/04 07:54:39;;;;;;;11.03;7.17;;;;;;;-3.08;63.13;100439.17;1627899;86;21035;-67
2022/02/04 07:57:05;;;;;;;10.13;6.40;;;;;;;-3.02;63.30;100438.77;1676433;82;21111;-66
2022/02/04 07:59:31;;;;;;;10.32;7.62;;;;;;;-3.01;62.96;100433.47;1679912;84;21063;-67
2022/02/04 08:01:57;;;;;;;10.15;7.05;;;;;;;-3.00;62.54;100437.73;1676376;83;21013;-66
2022/02/04 08:04:28;;;;;;;10.20;6.72;;;;;;;-3.03;62.60;100435.34;1642857;86;21014;-66
2022/02/04 08:06:56;;;;;;;7.67;5.57;;;;;;;-3.00;63.22;100430.37;1640060;86;21028;-65
2022/02/04 08:14:51;;;;;;;9.30;7.03;;;;;;;-2.87;62.27;100429.95;1650356;84;21125;-66
2022/02/04 08:22:49;;;;;;;9.97;7.90;;;;;;;-2.71;62.32;100427.20;1647174;85;21055;-66
2022/02/04 08:29:05;;;;;;;11.60;7.70;;;;;;;-2.66;62.08;100422.48;1676624;84;20980;-66
2022/02/04 08:46:59;;;;;;;13.93;9.10;;;;;;;-2.24;61.67;100415.80;1633868;86;21037;-66
2022/02/04 08:54:47;;;;;;;10.80;7.10;;;;;;;-2.03;60.52;100409.13;1675923;84;21058;-67
2022/02/04 08:57:23;;;;;;;9.10;6.03;;;;;;;-1.99;59.78;100412.38;1648107;86;21499;-65
2022/02/04 09:02:33;;;;;;;12.67;7.43;;;;;;;-1.98;60.21;100412.72;1681610;84;21018;-68
2022/02/04 09:04:50;;;;;;;10.93;6.37;;;;;;;-1.92;60.31;100413.63;1678643;84;21015;-67
2022/02/04 09:07:18;;;;;;;8.63;7.07;;;;;;;-1.86;59.59;100413.19;1673574;84;21495;-68
2022/02/04 09:09:50;;;;;;;8.40;6.67;;;;;;;-1.80;59.50;100412.75;1665631;84;21153;-67
2022/02/04 09:16:56;;;;;;;8.90;6.90;;;;;;;-1.77;59.22;100412.55;1655439;85;21019;-67
2022/02/04 09:18:31;;;;;;;10.50;6.50;;;;;;;-1.76;58.79;100419.44;1679488;84;21035;-65
2022/02/04 09:20:28;;;;;;;13.70;7.17;;;;;;;-1.82;58.64;100413.33;1675538;84;21064;-66
2022/02/04 09:22:50;;;;;;;10.80;7.80;;;;;;;-1.81;58.80;100415.47;1680286;84;21595;-68
2022/02/04 09:25:17;;;;;;;8.30;6.37;;;;;;;-1.73;58.70;100412.31;1671207;84;21559;-67
2022/02/04 09:27:45;;;;;;;9.53;5.90;;;;;;;-1.65;58.47;100410.02;1669557;84;21095;-66
2022/02/04 09:30:18;;;;;;;8.00;6.17;;;;;;;-1.58;58.11;100409.48;1679028;84;20996;-67
2022/02/04 09:32:45;;;;;;;11.37;8.83;;;;;;;-1.50;57.86;100408.94;1671837;84;22066;-67
2022/02/04 09:35:18;;;;;;;11.73;7.10;;;;;;;-1.34;57.61;100409.14;1684438;83;21039;-67
2022/02/04 09:37:47;;;;;;;9.17;6.50;;;;;;;-1.22;57.37;100400.43;1681595;83;20992;-66
2022/02/04 09:40:15;;;;;;;9.43;7.17;;;;;;;-1.13;56.32;100403.69;1685045;83;20990;-66
2022/02/04 09:42:44;;;;;;;13.67;8.87;;;;;;;-1.13;56.13;100394.53;1685196;83;20999;-69
2022/02/04 09:45:15;;;;;;;10.90;7.07;;;;;;;-1.05;55.93;100396.11;1686598;83;21154;-65
2022/02/04 09:48:00;;;;;;;8.03;5.27;;;;;;;-0.97;55.52;100394.72;1680619;84;21062;-67
2022/02/04 09:50:28;;;;;;;9.30;6.97;;;;;;;-0.96;53.89;100388.06;1679746;84;21577;-66
2022/02/04 10:10:10;;;;;;;9.13;6.10;;;;;;;-1.30;52.94;100387.05;1666650;84;21070;-66
2022/02/04 10:21:03;;;;;;;6.77;5.67;;;;;;;-1.24;53.52;100390.07;1653748;85;21187;-66
2022/02/04 10:24:00;;;;;;;9.60;7.23;;;;;;;-1.10;52.77;100390.37;1647344;84;21051;-65
2022/02/04 10:26:27;;;;;;;9.23;5.77;;;;;;;-1.05;52.63;100380.89;1631612;86;21621;-68
2022/02/04 10:28:54;;;;;;;8.23;6.00;;;;;;;-1.02;52.67;100388.05;1645996;85;21571;-66
2022/02/04 10:31:29;;;;;;;8.07;5.27;;;;;;;-1.05;51.68;100376.97;1650440;85;21607;-68
2022/02/04 10:34:09;;;;;;;8.47;5.33;;;;;;;-1.11;52.38;100381.31;1641705;84;21112;-66
2022/02/04 10:46:52;;;;;;;7.00;5.63;;;;;;;-1.13;52.07;100369.69;1851069;76;22321;-69
2022/02/04 10:52:12;;;;;;;7.00;5.20;;;;;;;-1.07;51.34;100365.30;1810818;77;21112;-72
2022/02/04 10:59:59;;;;;;;9.47;5.63;;;;;;;-1.34;51.09;100363.38;1815184;77;21005;-71
2022/02/04 11:04:50;;;;;;;5.20;4.40;;;;;;;-1.30;51.00;100349.98;1779746;79;21083;-71
2022/02/04 11:52:07;;;;;;;6.30;4.00;;;;;;;-1.12;50.41;100316.88;1746249;79;21086;-70
2022/02/04 11:54:43;;;;;;;4.63;4.10;;;;;;;-1.12;50.51;100323.42;1753254;79;21095;-70
2022/02/04 11:57:13;;;;;;;6.73;4.43;;;;;;;-1.09;50.21;100319.25;1759956;79;21428;-69
2022/02/04 11:59:46;;;;;;;5.77;4.10;;;;;;;-1.03;50.23;100322.27;1760150;79;21016;-70
2022/02/04 12:02:30;;;;;;;4.57;3.93;;;;;;;-0.97;50.05;100320.14;1740518;79;21489;-68
2022/02/04 12:05:11;;;;;;;7.87;4.93;;;;;;;-0.96;49.78;100327.03;1735336;81;22134;-70
2022/02/04 12:07:50;;;;;;;6.57;5.90;;;;;;;-0.98;49.67;100315.36;1740205;81;21006;-67
2022/02/04 12:10:24;;;;;;;4.83;4.20;;;;;;;-1.04;50.07;100328.43;1744298;81;21018;-71
2022/02/04 12:12:59;;;;;;;7.93;5.00;;;;;;;-1.43;50.65;100270.30;1723091;81;20966;-68
2022/02/04 12:15:47;;;;;;;8.43;5.83;;;;;;;-1.01;50.52;100324.77;1727657;81;21052;-70
2022/02/04 12:18:41;;;;;;;7.13;4.93;;;;;;;-1.04;50.41;100324.50;1747467;81;21170;-71
2022/02/04 12:21:13;;;;;;;6.20;4.60;;;;;;;-1.03;50.64;100319.64;1742229;81;21033;-68
2022/02/04 12:23:43;;;;;;;6.40;5.33;;;;;;;-0.98;50.49;100324.52;1745556;78;21156;-72
2022/02/04 12:26:16;;;;;;;5.57;4.53;;;;;;;-0.96;50.32;100330.50;1735698;81;21027;-71
2022/02/04 12:28:55;;;;;;;6.20;4.13;;;;;;;-0.95;50.24;100331.33;1716135;81;21087;-70
2022/02/04 12:31:35;;;;;;;5.47;4.30;;;;;;;-0.93;50.20;100328.13;1691819;82;21112;-71
2022/02/04 12:34:07;;;;;;;6.17;5.47;;;;;;;-0.97;49.75;100327.52;1716745;80;21498;-70
2022/02/04 12:36:39;;;;;;;7.07;5.73;;;;;;;-1.04;49.91;100325.81;1752477;80;21041;-69
2022/02/04 12:39:10;;;;;;;7.17;4.90;;;;;;;-1.05;50.21;100327.27;1760666;80;21578;-69
2022/02/04 12:41:41;;;;;;;8.70;5.53;;;;;;;-1.05;50.72;100329.39;1756577;80;21046;-68
2022/02/04 12:44:13;;;;;;;5.87;4.83;;;;;;;-1.05;50.32;100326.78;1750243;80;21003;-69
2022/02/04 12:46:43;;;;;;;8.10;5.30;;;;;;;-1.07;50.45;100322.14;1745426;80;21028;-69
2022/02/04 12:49:19;;;;;;;8.07;5.67;;;;;;;-1.07;50.56;100327.37;1749718;80;20961;-69
2022/02/04 12:52:01;;;;;;;5.60;4.57;;;;;;;-1.07;49.85;100326.06;1729882;80;20977;-70
2022/02/04 12:54:43;;;;;;;8.27;4.77;;;;;;;-1.09;49.81;100326.66;1742396;80;20970;-68
2022/02/04 13:03:04;;;;;;;5.10;4.17;;;;;;;-1.02;49.80;100325.25;1772251;79;21064;-70
2022/02/04 13:10:41;;;;;;;5.83;4.87;;;;;;;-1.00;48.07;100312.03;1784138;79;20996;-69
2022/02/04 13:13:14;;;;;;;5.37;4.07;;;;;;;-1.01;48.66;100313.83;1754477;80;20980;-69
2022/02/04 13:15:43;;;;;;;6.70;4.93;;;;;;;-0.98;48.94;100316.67;1753607;80;21053;-69
2022/02/04 13:18:14;;;;;;;6.70;5.27;;;;;;;-0.92;48.88;100318.86;1750980;80;21643;-70
2022/02/04 13:20:44;;;;;;;5.90;4.10;;;;;;;-0.88;49.01;100324.70;1745349;80;21032;-69
2022/02/04 13:23:22;;;;;;;5.50;4.97;;;;;;;-0.85;49.02;100327.92;1746415;80;20987;-70
2022/02/04 13:25:54;;;;;;;;;;;;;;;-0.84;48.89;100326.13;1755840;82;21022;-70
2022/02/04 13:28:24;;;;;;;7.37;5.33;;;;;;;-0.92;49.14;100328.02;1745167;82;20112;-69
2022/02/04 13:31:10;;;;;;;7.03;5.77;;;;;;;-1.00;49.68;100329.04;1750997;81;21013;-70
2022/02/04 13:33:44;;;;;;;12.10;6.63;;;;;;;-1.06;49.77;100330.33;1736217;79;21081;-68
2022/02/04 13:52:54;;;;;;;6.20;5.30;;;;;;;-1.14;49.27;100326.62;1763553;79;21051;-68
2022/02/04 13:58:27;;;;;;;8.17;5.03;;;;;;;-1.32;50.07;100336.64;1759903;79;21554;-70
2022/02/04 14:03:35;;;;;;;8.67;5.00;;;;;;;-1.47;50.37;100328.98;1647125;85;21044;-70
2022/02/04 14:06:09;;;;;;;7.10;4.80;;;;;;;-1.43;49.87;100333.49;1688158;83;21003;-70
2022/02/04 14:11:10;;;;;;;5.07;3.80;;;;;;;-1.49;49.29;100328.72;1685588;81;21123;-71
2022/02/04 14:13:37;;;;;;;6.50;4.17;;;;;;;-1.47;49.27;100334.22;1745845;81;21059;-68
2022/02/04 14:16:06;;;;;;;6.30;4.35;;;;;;;-1.49;48.89;100336.08;1748704;81;20956;-69
2022/02/04 14:18:36;;;;;;;7.20;4.13;;;;;;;-1.46;49.21;100332.43;1748026;81;21011;-70
2022/02/04 14:21:08;;;;;;;4.33;3.50;;;;;;;-1.48;48.76;100333.84;1741827;81;20972;-69
2022/02/04 14:23:35;;;;;;;5.53;3.27;;;;;;;-1.47;48.59;100335.52;1788290;78;21120;-69
2022/02/04 14:31:11;;;;;;;6.40;4.30;;;;;;;-1.49;49.14;100346.53;1793910;78;21066;-71
2022/02/04 14:36:12;;;;;;;5.43;3.80;;;;;;;-1.51;49.36;100354.14;1799388;78;20979;-69
2022/02/04 14:52:21;;;;;;;11.75;8.13;;;;;;;-1.50;49.61;100367.11;1796885;78;21051;-69
2022/02/04 14:54:46;;;;;;;8.67;5.90;;;;;;;-1.49;49.58;100370.06;1784120;78;20967;-70
2022/02/04 15:02:44;;;;;;;8.67;5.43;;;;;;;-1.62;49.87;100377.97;1831636;77;21072;-68
2022/02/04 15:05:13;;;;;;;16.23;11.45;;;;;;;-1.66;50.22;100374.36;1783837;77;21010;-69
2022/02/04 15:07:39;;;;;;;17.97;8.77;;;;;;;-1.66;50.52;100384.81;1826400;77;21029;-69
2022/02/04 15:10:12;;;;;;;18.03;10.50;;;;;;;-1.66;50.72;100388.73;1813135;77;21071;-68
2022/02/04 15:12:34;;;;;;;20.27;12.27;;;;;;;-1.68;50.82;100391.93;1819068;77;21072;-69
2022/02/04 15:15:01;;;;;;;20.35;11.10;;;;;;;-1.63;50.91;100388.53;1826808;77;21101;-68
2022/02/04 15:17:28;;;;;;;14.65;9.35;;;;;;;-1.62;51.05;100392.80;1817672;77;21447;-68
2022/02/04 15:19:54;;;;;;;;;;;;;;;-1.59;51.01;100396.52;1830493;77;21512;-68
2022/02/04 15:22:23;;;;;;;11.13;8.40;;;;;;;-1.62;50.99;100396.27;1827802;77;20122;-69
2022/02/04 15:24:53;;;;;;;14.97;8.67;;;;;;;-1.67;51.22;100402.77;1764223;79;20991;-70
2022/02/04 15:27:16;;;;;;;23.63;12.87;;;;;;;-1.70;51.18;100400.35;1764095;80;21043;-68
2022/02/04 15:29:45;;;;;;;22.50;15.85;;;;;;;-1.70;51.27;100400.35;1756389;79;21006;-71
2022/02/04 15:32:10;;;;;;;21.20;15.40;;;;;;;-1.68;51.35;100406.30;1716177;81;21003;-70
2022/02/04 15:34:37;;;;;;;19.37;13.85;;;;;;;-1.70;51.47;100397.73;1776536;79;20998;-68
2022/02/04 15:37:03;;;;;;;17.02;10.85;;;;;;;-1.67;51.42;100394.92;1786702;79;21025;-69
2022/02/04 15:39:31;;;;;;;19.53;13.47;;;;;;;-1.67;51.46;100398.36;1787817;78;21511;-70
2022/02/04 15:42:09;;;;;;;16.17;12.53;;;;;;;-1.66;51.52;100397.88;1822756;76;21482;-68
2022/02/04 15:44:37;;;;;;;18.03;12.70;;;;;;;-1.65;51.63;100400.88;1839866;76;20978;-70
2022/02/04 16:05:42;;;;;;;12.23;8.17;;;;;;;-1.72;51.71;100403.07;1787565;78;21486;-70
2022/02/04 16:08:04;;;;;;;12.33;6.67;;;;;;;-1.69;51.72;100399.42;1799248;78;21002;-68
2022/02/04 16:10:47;;;;;;;21.75;14.10;;;;;;;-1.67;51.82;100404.07;1794269;78;20990;-70
2022/02/04 16:13:25;;;;;;;20.77;13.90;;;;;;;-1.62;51.88;100402.80;1765661;78;20978;-68
2022/02/04 16:15:54;;;;;;;12.00;8.57;;;;;;;-1.61;52.28;100404.45;1762810;79;21098;-70
2022/02/04 16:18:22;;;;;;;12.05;10.00;;;;;;;-1.63;52.32;100403.73;1758129;79;21533;-68
2022/02/04 16:23:32;;;;;;;17.57;9.90;;;;;;;-1.67;52.54;100401.45;1770882;79;21059;-70
2022/02/04 16:28:39;;;;;;;12.43;8.17;;;;;;;-2.28;52.73;100321.66;1765127;79;21513;-70
2022/02/04 16:31:14;;;;;;;11.70;8.03;;;;;;;-1.84;52.99;100408.69;1775497;79;21101;-70
2022/02/04 16:33:42;;;;;;;14.03;7.87;;;;;;;-1.88;53.17;100410.33;1775777;77;21049;-70
2022/02/04 16:36:14;;;;;;;21.27;13.33;;;;;;;-1.93;53.17;100409.80;1733119;81;20992;-68
2022/02/04 16:38:36;;;;;;;17.97;12.40;;;;;;;-1.98;53.01;100408.80;1679170;83;21243;-68
2022/02/04 16:41:09;;;;;;;17.73;13.10;;;;;;;-2.01;53.09;100418.17;1700802;82;21040;-70
2022/02/04 16:43:35;;;;;;;16.20;11.93;;;;;;;-2.02;53.09;100419.92;1723995;81;21055;-70
2022/02/04 16:46:03;;;;;;;15.33;11.00;;;;;;;-2.00;53.69;100425.05;1723420;81;21094;-70
2022/02/04 16:48:30;;;;;;;16.37;12.57;;;;;;;-2.05;53.79;100426.69;1726322;81;21089;-69
2022/02/04 16:50:58;;;;;;;22.70;14.85;;;;;;;-2.04;53.77;100422.29;1727259;81;20983;-69
2022/02/04 16:53:24;;;;;;;22.87;15.37;;;;;;;-2.07;53.93;100419.87;1716372;81;21489;-70
2022/02/04 16:55:50;;;;;;;22.45;15.65;;;;;;;-2.07;54.19;100425.09;1738783;81;21017;-68
2022/02/04 16:58:19;;;;;;;30.72;17.07;;;;;;;-2.10;54.47;100421.41;1724757;82;21077;-70
2022/02/04 17:00:45;;;;;;;23.57;15.40;;;;;;;-2.14;54.56;100426.00;1706129;80;21501;-69
2022/02/04 17:03:12;;;;;;;28.73;20.25;;;;;;;-2.16;54.50;100421.36;1753523;80;21074;-70
2022/02/04 17:05:50;;;;;;;30.90;19.90;;;;;;;-2.19;54.68;100415.03;1753608;81;21046;-69
2022/02/04 17:08:10;;;;;;;28.63;17.77;;;;;;;-2.22;55.06;100416.08;1762740;80;21805;-69
2022/02/04 17:10:41;;;;;;;26.23;16.60;;;;;;;-2.28;55.45;100423.03;1760030;81;21109;-70
2022/02/04 17:13:06;;;;;;;27.27;17.40;;;;;;;-2.32;55.42;100415.02;1721903;81;21002;-68
2022/02/04 17:15:37;;;;;;;21.83;14.50;;;;;;;-2.36;55.33;100426.61;1709020;82;20987;-70
2022/02/04 17:18:06;;;;;;;23.37;14.60;;;;;;;-2.42;55.67;100429.64;1786069;79;21033;-69
2022/02/04 17:20:33;;;;;;;29.43;13.47;;;;;;;-2.45;55.76;100423.31;1775247;79;21021;-67
2022/02/04 17:23:04;;;;;;;18.00;11.43;;;;;;;-2.51;56.06;100421.94;1775417;79;21585;-68
2022/02/04 17:25:35;;;;;;;19.43;10.80;;;;;;;-2.53;56.11;100430.83;1767658;79;21125;-69
2022/02/04 17:28:02;;;;;;;22.63;11.40;;;;;;;-2.60;56.45;100422.55;1763751;79;21062;-69
2022/02/04 17:30:28;;;;;;;20.03;10.67;;;;;;;-2.66;56.75;100425.58;1767018;79;20997;-69
2022/02/04 17:32:57;;;;;;;32.93;11.67;;;;;;;-2.74;56.90;100426.91;1775073;79;21429;-69
2022/02/04 17:35:26;;;;;;;19.17;10.78;;;;;;;-2.82;57.03;100430.50;1782790;79;20952;-70
2022/02/04 17:37:57;;;;;;;23.83;12.10;;;;;;;-2.89;57.18;100425.31;1772164;79;21346;-71
2022/02/04 17:40:25;;;;;;;21.97;10.13;;;;;;;-2.95;57.64;100427.84;1779750;79;22299;-73
2022/02/04 17:42:52;;;;;;;24.07;10.77;;;;;;;-3.01;57.94;100428.25;1768278;79;21048;-70
2022/02/04 17:45:21;;;;;;;18.92;12.03;;;;;;;-3.09;58.18;100421.84;1771975;79;20960;-70
2022/02/04 17:47:54;;;;;;;21.60;10.10;;;;;;;-3.12;58.39;100417.67;1789333;79;21064;-70
2022/02/04 17:50:25;;;;;;;17.33;11.33;;;;;;;-3.16;58.52;100422.24;1771648;79;21500;-72
2022/02/04 17:52:52;;;;;;;23.60;13.27;;;;;;;-3.17;58.75;100423.16;1774581;79;21629;-66
2022/02/04 17:55:19;;;;;;;21.67;12.97;;;;;;;-3.17;58.97;100430.16;1780652;79;21113;-78
2022/02/04 17:57:55;;;;;;;23.73;13.43;;;;;;;-3.18;59.11;100432.41;1778204;79;21018;-74
2022/02/04 18:08:08;;;;;;;24.30;16.90;;;;;;;-3.26;59.91;100427.66;1732504;80;21138;-73
2022/02/04 18:10:36;;;;;;;32.97;17.67;;;;;;;-3.23;59.82;100428.78;1774279;80;20975;-73
2022/02/04 18:13:04;;;;;;;;;;;;;;;-3.16;59.80;100429.23;1778021;79;21053;-74
2022/02/04 18:15:31;;;;;;;30.40;18.50;;;;;;;-3.06;59.69;100426.87;1775555;79;20123;-75
2022/02/04 18:17:57;;;;;;;50.65;25.60;;;;;;;-2.98;59.64;100426.73;1774905;79;21007;-73
2022/02/04 18:20:24;;;;;;;43.92;23.40;;;;;;;-2.88;59.51;100427.44;1772351;79;21022;-74
2022/02/04 18:22:50;;;;;;;48.73;24.53;;;;;;;-2.75;59.28;100424.39;1791398;79;21068;-74
2022/02/04 18:25:18;;;;;;;61.33;28.85;;;;;;;-2.67;59.09;100419.53;1813437;78;20981;-74